createdAt,value
2023-05-13T00:01:16.524Z,79.34
2023-05-13T00:03:44.771Z,78.65
2023-05-13T00:06:12.951Z,80.41
2023-05-13T00:08:40.248Z,80.18
2023-05-13T00:11:08.111Z,80.25
2023-05-13T00:13:35.518Z,78.74
2023-05-13T00:16:03.757Z,77.12
2023-05-13T00:18:31.308Z,80.52
2023-05-13T00:20:58.631Z,83.18
2023-05-13T00:23:25.851Z,85.47
2023-05-13T00:25:53.441Z,85.20
2023-05-13T00:28:21.333Z,85.39
2023-05-13T00:30:49.333Z,87.91
2023-05-13T00:33:17.424Z,87.74
2023-05-13T00:35:44.688Z,85.11
2023-05-13T00:38:12.007Z,81.97
2023-05-13T00:40:39.828Z,81.72
2023-05-13T00:43:07.121Z,79.78
2023-05-13T00:45:37.166Z,79.96
2023-05-13T00:48:06.987Z,80.56
2023-05-13T00:50:34.820Z,80.57
2023-05-13T00:53:04.162Z,81.74
2023-05-13T00:55:31.869Z,81.49
2023-05-13T00:58:01.150Z,82.02
2023-05-13T01:00:31.924Z,79.87
2023-05-13T01:03:35.348Z,76.88
2023-05-13T01:06:08.994Z,77.53
2023-05-13T01:08:58.321Z,78.59
2023-05-13T01:11:33.599Z,77.77
2023-05-13T01:14:26.163Z,75.78
2023-05-13T01:16:59.449Z,77.06
2023-05-13T01:19:42.144Z,75.41
2023-05-13T01:22:09.618Z,76.00
2023-05-13T01:24:37.285Z,77.59
2023-05-13T01:27:05.991Z,77.47
2023-05-13T01:29:34.726Z,76.62
2023-05-13T01:32:03.599Z,77.56
2023-05-13T01:34:31.810Z,78.09
2023-05-13T01:37:00.173Z,77.57
2023-05-13T01:39:29.060Z,76.78
2023-05-13T01:41:57.352Z,77.13
2023-05-13T01:44:25.144Z,75.78
2023-05-13T01:46:53.833Z,76.53
2023-05-13T01:49:21.631Z,75.82
2023-05-13T01:51:48.947Z,76.31
2023-05-13T01:54:16.618Z,75.88
2023-05-13T01:56:46.086Z,75.86
2023-05-13T01:59:13.416Z,76.37
2023-05-13T02:01:41.306Z,76.59
2023-05-13T02:04:08.972Z,75.86
2023-05-13T02:06:36.390Z,76.68
2023-05-13T02:09:03.749Z,76.69
2023-05-13T02:11:31.407Z,76.75
2023-05-13T02:13:59.004Z,76.87
2023-05-13T02:16:26.314Z,75.63
2023-05-13T02:18:54.524Z,76.31
2023-05-13T02:21:27.296Z,74.88
2023-05-13T02:23:54.584Z,75.37
2023-05-13T02:26:22.404Z,75.32
2023-05-13T02:28:50.252Z,75.37
2023-05-13T02:31:17.541Z,75.21
2023-05-13T02:33:45.317Z,74.30
2023-05-13T02:36:13.891Z,74.55
2023-05-13T02:38:41.969Z,75.42
2023-05-13T02:41:11.447Z,74.67
2023-05-13T02:43:40.090Z,75.29
2023-05-13T02:46:08.905Z,75.51
2023-05-13T02:48:36.169Z,75.33
2023-05-13T02:51:03.790Z,75.07
2023-05-13T02:53:31.034Z,75.88
2023-05-13T02:55:59.440Z,75.98
2023-05-13T02:58:27.060Z,75.37
2023-05-13T03:00:54.559Z,75.56
2023-05-13T03:03:23.518Z,76.70
2023-05-13T03:05:52.492Z,77.00
2023-05-13T03:08:19.900Z,76.33
2023-05-13T03:10:47.223Z,76.17
2023-05-13T03:13:15.029Z,73.80
2023-05-13T03:15:44.360Z,74.27
2023-05-13T03:18:12.350Z,73.38
2023-05-13T03:20:40.242Z,74.61
2023-05-13T03:23:08.251Z,75.38
2023-05-13T03:25:35.893Z,75.85
2023-05-13T03:28:04.183Z,76.13
2023-05-13T03:30:32.131Z,76.80
2023-05-13T03:33:00.046Z,76.66
2023-05-13T03:35:27.797Z,77.79
2023-05-13T03:37:55.845Z,78.44
2023-05-13T03:40:23.373Z,80.42
2023-05-13T03:42:51.984Z,80.26
2023-05-13T03:45:19.958Z,80.05
2023-05-13T03:47:48.051Z,77.44
2023-05-13T03:50:16.068Z,79.95
2023-05-13T03:52:45.528Z,83.48
2023-05-13T03:55:15.299Z,83.77
2023-05-13T03:57:48.355Z,83.10
2023-05-13T04:00:16.642Z,81.15
2023-05-13T04:02:44.020Z,80.59
2023-05-13T04:05:13.946Z,82.47
2023-05-13T04:07:41.593Z,83.04
2023-05-13T04:10:09.359Z,83.09
2023-05-13T04:12:37.631Z,82.84
2023-05-13T04:15:05.371Z,83.12
2023-05-13T04:17:32.813Z,84.51
2023-05-13T04:20:00.681Z,83.86
2023-05-13T04:22:28.949Z,83.04
2023-05-13T04:24:57.371Z,84.68
2023-05-13T04:27:25.874Z,85.04
2023-05-13T04:29:53.625Z,85.40
2023-05-13T04:32:24.044Z,84.38
2023-05-13T04:34:53.352Z,84.34
2023-05-13T04:37:21.135Z,84.87
2023-05-13T04:39:48.812Z,86.03
2023-05-13T04:42:17.116Z,84.58
2023-05-13T04:44:44.455Z,85.35
2023-05-13T04:47:11.936Z,82.62
2023-05-13T04:49:39.611Z,82.48
2023-05-13T04:52:07.350Z,82.81
2023-05-13T04:54:36.114Z,83.94
2023-05-13T04:57:03.880Z,85.50
2023-05-13T04:59:31.514Z,85.57
2023-05-13T05:01:59.112Z,86.09
2023-05-13T05:04:27.841Z,87.72
2023-05-13T05:06:55.589Z,87.51
2023-05-13T05:09:22.963Z,90.59
2023-05-13T05:11:51.731Z,90.52
2023-05-13T05:14:20.454Z,91.41
2023-05-13T05:16:48.814Z,90.24
2023-05-13T05:19:16.534Z,90.74
2023-05-13T05:21:43.892Z,90.51
2023-05-13T05:24:11.782Z,89.76
2023-05-13T05:26:41.074Z,88.89
2023-05-13T05:29:09.984Z,84.08
2023-05-13T05:31:37.610Z,84.47
2023-05-13T05:34:05.563Z,84.68
2023-05-13T05:36:33.676Z,83.57
2023-05-13T05:39:03.170Z,83.38
2023-05-13T05:41:31.345Z,83.72
2023-05-13T05:43:58.812Z,83.39
2023-05-13T05:46:26.434Z,82.20
2023-05-13T05:48:55.212Z,82.55
2023-05-13T05:51:23.063Z,81.12
2023-05-13T05:53:50.646Z,82.18
2023-05-13T05:56:18.275Z,81.18
2023-05-13T05:58:45.814Z,81.66
2023-05-13T06:01:13.343Z,80.61
2023-05-13T06:03:41.170Z,80.63
2023-05-13T06:06:08.765Z,80.00
2023-05-13T06:08:36.424Z,81.29
2023-05-13T06:11:04.173Z,79.49
2023-05-13T06:13:31.588Z,80.21
2023-05-13T06:15:59.023Z,80.10
2023-05-13T06:18:26.989Z,81.14
2023-05-13T06:20:54.355Z,80.88
2023-05-13T06:23:21.678Z,80.56
2023-05-13T06:25:52.007Z,80.61
2023-05-13T06:28:19.588Z,78.61
2023-05-13T06:30:47.009Z,78.12
2023-05-13T06:33:14.806Z,78.41
2023-05-13T06:35:42.245Z,78.03
2023-05-13T06:38:10.472Z,76.79
2023-05-13T06:40:39.464Z,76.97
2023-05-13T06:43:07.032Z,77.06
2023-05-13T06:45:36.987Z,73.67
2023-05-13T06:48:04.945Z,74.41
2023-05-13T06:50:33.016Z,74.96
2023-05-13T06:53:00.374Z,73.89
2023-05-13T06:55:28.186Z,72.74
2023-05-13T06:57:55.747Z,72.40
2023-05-13T07:00:24.100Z,74.39
2023-05-13T07:02:53.070Z,71.49
2023-05-13T07:05:21.276Z,70.39
2023-05-13T07:07:48.749Z,71.36
2023-05-13T07:10:16.596Z,70.98
2023-05-13T07:12:44.081Z,71.99
2023-05-13T07:15:11.586Z,72.82
2023-05-13T07:17:40.074Z,70.31
2023-05-13T07:20:08.976Z,69.68
2023-05-13T07:22:36.363Z,71.37
2023-05-13T07:25:04.360Z,71.43
2023-05-13T07:27:31.831Z,72.73
2023-05-13T07:29:59.211Z,72.23
2023-05-13T07:32:26.944Z,70.68
2023-05-13T07:34:54.435Z,68.77
2023-05-13T07:37:21.667Z,66.90
2023-05-13T07:39:49.791Z,66.16
2023-05-13T07:42:17.107Z,67.64
2023-05-13T07:44:44.338Z,66.55
2023-05-13T07:47:13.616Z,68.32
2023-05-13T07:49:41.230Z,70.15
2023-05-13T07:52:08.993Z,72.16
2023-05-13T07:54:37.318Z,70.67
2023-05-13T07:57:04.822Z,66.26
2023-05-13T07:59:32.224Z,66.47
2023-05-13T08:01:59.937Z,67.38
2023-05-13T08:04:27.953Z,67.54
2023-05-13T08:06:55.338Z,63.53
2023-05-13T08:09:22.657Z,64.57
2023-05-13T08:11:50.457Z,62.75
2023-05-13T08:14:17.863Z,64.90
2023-05-13T08:16:45.390Z,66.67
2023-05-13T08:19:16.505Z,66.13
2023-05-13T08:21:44.727Z,65.76
2023-05-13T08:24:12.644Z,64.64
2023-05-13T08:26:40.362Z,66.89
2023-05-13T08:29:08.256Z,64.99
2023-05-13T08:31:35.763Z,64.35
2023-05-13T08:34:03.387Z,64.30
2023-05-13T08:36:31.000Z,66.21
2023-05-13T08:38:58.427Z,64.96
2023-05-13T08:41:26.970Z,64.11
2023-05-13T08:43:58.079Z,65.78
2023-05-13T08:46:28.077Z,64.41
2023-05-13T08:48:56.214Z,61.20
2023-05-13T08:51:24.394Z,57.99
2023-05-13T08:53:53.900Z,57.97
2023-05-13T08:56:24.546Z,56.35
2023-05-13T08:58:52.240Z,56.41
2023-05-13T09:01:19.819Z,55.53
2023-05-13T09:04:08.808Z,55.77
2023-05-13T09:06:36.592Z,52.97
2023-05-13T09:09:05.276Z,52.55
2023-05-13T09:11:34.137Z,51.36
2023-05-13T09:14:07.859Z,52.33
2023-05-13T09:16:36.834Z,53.56
2023-05-13T09:19:06.627Z,53.13
2023-05-13T09:21:38.425Z,54.19
2023-05-13T09:24:11.541Z,55.44
2023-05-13T09:26:40.687Z,52.75
2023-05-13T09:29:24.732Z,54.39
2023-05-13T09:32:00.382Z,52.68
2023-05-13T09:34:35.318Z,50.34
2023-05-13T09:37:04.845Z,51.40
2023-05-13T09:39:34.983Z,50.97
2023-05-13T09:42:04.663Z,51.96
2023-05-13T09:44:34.206Z,51.31
2023-05-13T09:47:02.734Z,50.69
2023-05-13T09:49:31.964Z,54.96
2023-05-13T09:51:59.590Z,56.75
2023-05-13T09:54:29.511Z,53.13
2023-05-13T09:57:01.734Z,49.42
2023-05-13T09:59:33.976Z,48.08
2023-05-13T10:02:05.107Z,48.75
2023-05-13T10:04:33.280Z,47.41
2023-05-13T10:07:03.580Z,47.19
2023-05-13T10:09:38.915Z,46.23
2023-05-13T10:12:09.061Z,44.39
2023-05-13T10:14:38.255Z,47.09
2023-05-13T10:17:06.720Z,45.67
2023-05-13T10:19:35.431Z,43.78
2023-05-13T10:22:03.197Z,46.49
2023-05-13T10:24:30.866Z,45.60
2023-05-13T10:27:01.992Z,46.65
2023-05-13T10:29:29.888Z,47.80
2023-05-13T10:32:00.132Z,47.45
2023-05-13T10:34:29.321Z,46.28
2023-05-13T10:37:25.279Z,47.06
2023-05-13T10:40:12.664Z,47.99
2023-05-13T10:42:42.907Z,47.40
2023-05-13T10:45:11.740Z,45.82
2023-05-13T10:47:39.458Z,47.38
2023-05-13T10:50:22.551Z,49.71
2023-05-13T10:52:51.381Z,48.51
2023-05-13T10:55:21.268Z,49.33
2023-05-13T10:58:15.263Z,51.21
2023-05-13T11:00:45.095Z,50.94
2023-05-13T11:03:15.193Z,51.80
2023-05-13T11:05:58.701Z,52.97
2023-05-13T11:08:55.726Z,53.91
2023-05-13T11:11:31.135Z,54.07
2023-05-13T11:14:27.381Z,51.75
2023-05-13T11:17:01.258Z,50.10
2023-05-13T11:19:35.438Z,50.23
2023-05-13T11:22:13.248Z,48.97
2023-05-13T11:24:41.619Z,49.25
2023-05-13T11:27:17.851Z,49.07
2023-05-13T11:29:55.451Z,49.82
2023-05-13T11:32:48.476Z,46.93
2023-05-13T11:35:20.963Z,46.28
2023-05-13T11:37:51.405Z,45.87
2023-05-13T11:40:30.765Z,45.52
2023-05-13T11:42:59.412Z,45.73
2023-05-13T11:45:28.026Z,46.70
2023-05-13T11:47:56.281Z,46.87
2023-05-13T11:50:30.546Z,44.76
2023-05-13T11:52:59.842Z,44.29
2023-05-13T11:55:31.621Z,44.02
2023-05-13T11:57:59.855Z,41.48
2023-05-13T12:00:36.546Z,45.33
2023-05-13T12:03:11.950Z,45.17
2023-05-13T12:05:40.320Z,42.94
2023-05-13T12:08:12.560Z,41.77
2023-05-13T12:10:44.226Z,42.33
2023-05-13T12:13:12.554Z,43.32
2023-05-13T12:15:41.427Z,43.02
2023-05-13T12:18:08.816Z,44.20
2023-05-13T12:20:36.858Z,42.72
2023-05-13T12:23:05.408Z,41.82
2023-05-13T12:25:33.105Z,42.91
2023-05-13T12:28:12.573Z,42.93
2023-05-13T12:30:42.128Z,45.11
2023-05-13T12:33:17.897Z,44.13
2023-05-13T12:35:49.925Z,44.30
2023-05-13T12:38:21.478Z,44.77
2023-05-13T12:40:49.780Z,43.40
2023-05-13T12:43:20.976Z,44.82
2023-05-13T12:45:56.700Z,41.59
2023-05-13T12:48:25.712Z,41.71
2023-05-13T12:50:53.517Z,44.02
2023-05-13T12:53:21.510Z,45.93
2023-05-13T12:55:48.916Z,45.43
2023-05-13T12:58:16.742Z,45.37
2023-05-13T13:00:44.135Z,43.50
2023-05-13T13:03:11.625Z,44.33
2023-05-13T13:05:39.462Z,44.78
2023-05-13T13:08:06.739Z,46.23
2023-05-13T13:10:34.165Z,45.95
2023-05-13T13:13:02.047Z,46.19
2023-05-13T13:15:29.411Z,46.36
2023-05-13T13:17:57.001Z,46.34
2023-05-13T13:20:24.769Z,46.05
2023-05-13T13:22:53.872Z,45.34
2023-05-13T13:25:21.377Z,45.53
2023-05-13T13:27:49.293Z,46.11
2023-05-13T13:30:16.604Z,43.46
2023-05-13T13:32:44.063Z,42.83
2023-05-13T13:35:11.874Z,42.25
2023-05-13T13:37:39.477Z,43.04
2023-05-13T13:40:07.309Z,43.26
2023-05-13T13:42:44.075Z,42.39
2023-05-13T13:45:14.036Z,41.76
2023-05-13T13:47:42.192Z,42.12
2023-05-13T13:50:10.186Z,42.57
2023-05-13T13:52:37.531Z,41.51
2023-05-13T13:55:05.696Z,41.53
2023-05-13T13:57:33.043Z,40.20
2023-05-13T14:00:00.376Z,39.85
2023-05-13T14:02:28.199Z,40.82
2023-05-13T14:04:55.942Z,40.24
2023-05-13T14:07:23.308Z,39.26
2023-05-13T14:09:50.816Z,39.98
2023-05-13T14:12:18.657Z,43.87
2023-05-13T14:14:46.029Z,44.98
2023-05-13T14:17:14.398Z,45.50
2023-05-13T14:19:42.667Z,45.25
2023-05-13T14:22:10.294Z,46.42
2023-05-13T14:24:37.584Z,46.80
2023-05-13T14:27:05.717Z,47.11
2023-05-13T14:29:33.336Z,46.76
2023-05-13T14:32:03.059Z,46.68
2023-05-13T14:34:30.774Z,47.79
2023-05-13T14:36:58.060Z,47.73
2023-05-13T14:39:25.445Z,48.34
2023-05-13T14:41:53.206Z,48.12
2023-05-13T14:44:20.897Z,49.48
2023-05-13T14:46:48.256Z,49.03
2023-05-13T14:49:15.855Z,49.60
2023-05-13T14:51:43.368Z,48.84
2023-05-13T14:54:11.097Z,48.41
2023-05-13T14:56:39.000Z,48.29
2023-05-13T14:59:06.353Z,49.94
2023-05-13T15:01:34.696Z,49.81
2023-05-13T15:04:02.429Z,47.40
2023-05-13T15:06:29.844Z,48.60
2023-05-13T15:08:57.692Z,49.81
2023-05-13T15:11:29.849Z,51.55
2023-05-13T15:13:57.313Z,51.55
2023-05-13T15:16:24.934Z,51.32
2023-05-13T15:18:52.777Z,51.67
2023-05-13T15:21:20.084Z,50.16
2023-05-13T15:23:47.702Z,47.63
2023-05-13T15:26:15.492Z,46.99
2023-05-13T15:28:42.755Z,47.62
2023-05-13T15:31:10.576Z,45.56
2023-05-13T15:33:37.954Z,48.03
2023-05-13T15:36:06.385Z,48.66
2023-05-13T15:38:34.305Z,49.06
2023-05-13T15:41:03.554Z,49.83
2023-05-13T15:43:32.036Z,50.34
2023-05-13T15:46:01.121Z,49.61
2023-05-13T15:48:29.865Z,50.33
2023-05-13T15:50:57.264Z,51.02
2023-05-13T15:53:24.885Z,52.24
2023-05-13T15:55:52.577Z,53.29
2023-05-13T15:58:19.965Z,52.58
2023-05-13T16:00:47.595Z,53.73
2023-05-13T16:03:17.158Z,53.01
2023-05-13T16:05:44.749Z,53.36
2023-05-13T16:08:12.055Z,55.10
2023-05-13T16:10:39.845Z,54.51
2023-05-13T16:13:07.449Z,55.00
2023-05-13T16:15:34.845Z,55.07
2023-05-13T16:18:02.676Z,55.76
2023-05-13T16:20:30.045Z,55.12
2023-05-13T16:22:57.412Z,55.82
2023-05-13T16:25:25.136Z,55.66
2023-05-13T16:27:52.492Z,56.57
2023-05-13T16:30:20.282Z,57.71
2023-05-13T16:32:53.103Z,57.64
2023-05-13T16:35:21.496Z,57.30
2023-05-13T16:37:50.227Z,56.90
2023-05-13T16:40:17.666Z,58.62
2023-05-13T16:42:46.495Z,58.59
2023-05-13T16:45:14.189Z,59.31
2023-05-13T16:47:41.824Z,59.05
2023-05-13T16:50:09.599Z,59.01
2023-05-13T16:52:37.243Z,59.72
2023-05-13T16:55:04.949Z,59.80
2023-05-13T16:57:32.870Z,59.72
2023-05-13T17:00:00.697Z,60.04
2023-05-13T17:02:28.025Z,60.33
2023-05-13T17:04:55.778Z,60.71
2023-05-13T17:07:24.340Z,59.77
2023-05-13T17:09:51.977Z,60.98
2023-05-13T17:12:19.465Z,60.59
2023-05-13T17:14:47.128Z,60.67
2023-05-13T17:17:14.574Z,61.53
2023-05-13T17:19:42.454Z,61.75
2023-05-13T17:22:10.206Z,61.39
2023-05-13T17:24:38.773Z,62.06
2023-05-13T17:27:06.889Z,62.06
2023-05-13T17:29:34.821Z,62.04
2023-05-13T17:32:02.172Z,62.50
2023-05-13T17:34:29.623Z,62.98
2023-05-13T17:36:57.522Z,62.76
2023-05-13T17:39:24.900Z,62.43
2023-05-13T17:41:52.343Z,62.57
2023-05-13T17:44:20.538Z,63.30
2023-05-13T17:46:47.819Z,61.98
2023-05-13T17:49:15.305Z,61.82
2023-05-13T17:51:43.533Z,61.70
2023-05-13T17:54:11.604Z,61.55
2023-05-13T17:56:39.026Z,62.18
2023-05-13T17:59:07.472Z,62.15
2023-05-13T18:01:35.285Z,62.76
2023-05-13T18:04:03.351Z,63.45
2023-05-13T18:06:31.386Z,63.69
2023-05-13T18:08:58.949Z,64.27
2023-05-13T18:11:26.892Z,64.78
2023-05-13T18:13:54.297Z,64.48
2023-05-13T18:16:22.265Z,65.21
2023-05-13T18:18:50.006Z,65.34
2023-05-13T18:21:17.443Z,65.19
2023-05-13T18:23:47.080Z,65.73
2023-05-13T18:26:15.278Z,66.11
2023-05-13T18:28:45.133Z,66.02
2023-05-13T18:31:12.495Z,66.40
2023-05-13T18:33:40.496Z,66.48
2023-05-13T18:36:10.115Z,66.65
2023-05-13T18:38:39.819Z,66.79
2023-05-13T18:41:07.612Z,66.92
2023-05-13T18:43:34.968Z,67.94
2023-05-13T18:46:02.350Z,68.68
2023-05-13T18:48:29.988Z,69.27
2023-05-13T18:50:57.518Z,69.41
2023-05-13T18:53:24.944Z,69.78
2023-05-13T18:55:52.788Z,70.57
2023-05-13T18:58:20.141Z,70.92
2023-05-13T19:00:47.545Z,70.59
2023-05-13T19:03:15.570Z,69.93
2023-05-13T19:05:43.045Z,69.60
2023-05-13T19:08:10.475Z,70.04
2023-05-13T19:10:40.118Z,70.45
2023-05-13T19:13:09.631Z,70.59
2023-05-13T19:15:37.145Z,70.57
2023-05-13T19:18:04.988Z,70.47
2023-05-13T19:20:32.410Z,70.63
2023-05-13T19:22:59.830Z,70.75
2023-05-13T19:25:27.606Z,70.87
2023-05-13T19:27:55.032Z,71.07
2023-05-13T19:30:22.869Z,70.74
2023-05-13T19:32:50.775Z,70.48
2023-05-13T19:35:18.320Z,70.64
2023-05-13T19:37:45.831Z,69.93
2023-05-13T19:40:13.625Z,69.86
2023-05-13T19:42:40.913Z,69.12
2023-05-13T19:45:10.671Z,68.75
2023-05-13T19:47:38.912Z,69.29
2023-05-13T19:50:06.765Z,69.28
2023-05-13T19:52:34.275Z,71.82
2023-05-13T19:55:02.129Z,72.31
2023-05-13T19:57:30.135Z,72.74
2023-05-13T19:59:58.917Z,73.51
2023-05-13T20:02:26.850Z,73.87
2023-05-13T20:04:56.538Z,72.93
2023-05-13T20:07:23.989Z,74.71
2023-05-13T20:09:51.543Z,75.00
2023-05-13T20:12:19.319Z,74.41
2023-05-13T20:14:48.475Z,77.33
2023-05-13T20:17:17.607Z,75.89
2023-05-13T20:19:49.737Z,77.01
2023-05-13T20:22:18.610Z,76.76
2023-05-13T20:24:48.048Z,77.11
2023-05-13T20:27:16.283Z,76.08
2023-05-13T20:29:45.648Z,72.31
2023-05-13T20:32:14.363Z,72.64
2023-05-13T20:34:42.297Z,72.80
2023-05-13T20:37:12.183Z,72.94
2023-05-13T20:39:40.090Z,72.62
2023-05-13T20:42:07.562Z,72.44
2023-05-13T20:44:34.972Z,71.79
2023-05-13T20:47:02.760Z,71.95
2023-05-13T20:49:30.222Z,72.42
2023-05-13T20:52:03.659Z,71.46
2023-05-13T20:54:31.512Z,71.90
2023-05-13T20:57:00.668Z,72.23
2023-05-13T20:59:27.812Z,72.11
2023-05-13T21:01:55.938Z,72.89
2023-05-13T21:04:23.410Z,72.47
2023-05-13T21:06:50.788Z,72.44
2023-05-13T21:09:18.426Z,72.47
2023-05-13T21:11:46.201Z,71.94
2023-05-13T21:14:13.686Z,72.29
2023-05-13T21:16:41.375Z,71.77
2023-05-13T21:19:08.804Z,71.91
2023-05-13T21:21:36.159Z,71.61
2023-05-13T21:24:03.958Z,71.35
2023-05-13T21:26:31.273Z,71.59
2023-05-13T21:28:58.609Z,71.18
2023-05-13T21:31:26.326Z,70.99
2023-05-13T21:33:53.688Z,71.02
2023-05-13T21:36:20.916Z,70.88
2023-05-13T21:38:48.557Z,70.50
2023-05-13T21:41:15.856Z,69.73
2023-05-13T21:43:43.019Z,69.57
2023-05-13T21:46:10.664Z,70.24
2023-05-13T21:48:38.230Z,69.93
2023-05-13T21:51:06.193Z,73.52
2023-05-13T21:53:34.084Z,74.44
2023-05-13T21:56:01.308Z,75.96
2023-05-13T21:58:28.487Z,76.16
2023-05-13T22:00:56.840Z,75.82
2023-05-13T22:03:24.565Z,72.19
2023-05-13T22:05:51.807Z,70.99
2023-05-13T22:08:19.154Z,70.69
2023-05-13T22:10:46.992Z,71.04
2023-05-13T22:13:14.343Z,70.84
2023-05-13T22:15:41.748Z,70.72
2023-05-13T22:18:09.724Z,70.84
2023-05-13T22:20:37.188Z,70.04
2023-05-13T22:23:04.494Z,69.62
2023-05-13T22:25:32.102Z,69.55
2023-05-13T22:27:59.406Z,69.46
2023-05-13T22:30:26.891Z,68.75
2023-05-13T22:32:55.973Z,68.99
2023-05-13T22:35:23.350Z,68.82
2023-05-13T22:37:52.780Z,68.56
2023-05-13T22:40:20.876Z,67.88
2023-05-13T22:42:48.392Z,68.02
2023-05-13T22:45:15.765Z,68.70
2023-05-13T22:47:43.317Z,69.04
2023-05-13T22:50:12.431Z,69.42
2023-05-13T22:52:39.627Z,68.79
2023-05-13T22:55:07.978Z,69.29
2023-05-13T22:57:35.233Z,69.45
2023-05-13T23:00:02.499Z,68.65
2023-05-13T23:02:30.098Z,68.96
2023-05-13T23:04:57.376Z,70.01
2023-05-13T23:07:24.693Z,69.67
2023-05-13T23:09:52.225Z,69.87
2023-05-13T23:12:19.446Z,69.93
2023-05-13T23:14:46.661Z,69.76
2023-05-13T23:17:14.549Z,69.37
2023-05-13T23:19:41.799Z,69.27
2023-05-13T23:22:09.052Z,68.79
2023-05-13T23:24:36.619Z,69.51
2023-05-13T23:27:04.402Z,69.47
2023-05-13T23:29:32.148Z,70.17
2023-05-13T23:31:59.980Z,70.39
2023-05-13T23:34:27.445Z,70.89
2023-05-13T23:36:54.683Z,70.63
2023-05-13T23:39:22.207Z,70.96
2023-05-13T23:41:49.455Z,70.90
2023-05-13T23:44:16.735Z,70.58
2023-05-13T23:46:44.330Z,70.57
2023-05-13T23:49:11.546Z,70.54
2023-05-13T23:51:38.828Z,70.33
2023-05-13T23:54:08.305Z,69.77
2023-05-13T23:56:35.446Z,69.78
2023-05-13T23:59:02.923Z,70.36
